Bremen, Kansas
Current Conditions -  °F | °C
As of 5:35 AM on Tuesday 21 Oct 2014 (Local Time) from KMYZ Reporting Station
Clear Clear  
Wind Chill: 41°   Ceiling: Unl
Heat Index: 41°   Visibility: 10mi
Dew Point: 37°   Wind: 0mph
Humidity: 87%   Direction: NA
Pressure: 30.1"   Gusts: NA
Location:  39.9°N, 96.79°W
Report Text: KMYZ 211035Z AUTO 00000KT 10SM CLR 05/03 A3010 RMK AO2
Loading
Personal Weather Stations






























Interactive Weather Map
Tropical Storm Tracking
New forecast layout! Learn more

10-Day Weather Forecast

Advertisements
Track Severe Weather on mobile